sensor_id;sensor_type;location;lat;lon;timestamp;temperature;humidity
44037;DHT22;62488;-37.670;-63.532;2022-08-01T00:02:22;8.90;99.90
44037;DHT22;62488;-37.670;-63.532;2022-08-01T00:04:49;8.90;99.90
44037;DHT22;62488;-37.670;-63.532;2022-08-01T00:07:16;9.00;99.90
44037;DHT22;62488;-37.670;-63.532;2022-08-01T00:09:43;9.00;99.90
44037;DHT22;62488;-37.670;-63.532;2022-08-01T00:12:10;9.00;99.90
44037;DHT22;62488;-37.670;-63.532;2022-08-01T00:14:37;9.00;99.90
44037;DHT22;62488;-37.670;-63.532;2022-08-01T00:17:07;9.00;99.90
44037;DHT22;62488;-37.670;-63.532;2022-08-01T00:19:34;9.00;99.90
44037;DHT22;62488;-37.670;-63.532;2022-08-01T00:22:07;9.00;99.90
44037;DHT22;62488;-37.670;-63.532;2022-08-01T00:24:34;9.10;99.90
44037;DHT22;62488;-37.670;-63.532;2022-08-01T00:27:02;9.10;99.90
44037;DHT22;62488;-37.670;-63.532;2022-08-01T00:29:29;9.10;99.90
44037;DHT22;62488;-37.670;-63.532;2022-08-01T00:31:56;9.10;99.90
44037;DHT22;62488;-37.670;-63.532;2022-08-01T00:34:23;9.10;99.90
44037;DHT22;62488;-37.670;-63.532;2022-08-01T00:36:52;9.10;99.90
44037;DHT22;62488;-37.670;-63.532;2022-08-01T00:39:19;9.10;99.90
44037;DHT22;62488;-37.670;-63.532;2022-08-01T00:41:46;9.10;99.90
44037;DHT22;62488;-37.670;-63.532;2022-08-01T00:44:13;9.10;99.90
44037;DHT22;62488;-37.670;-63.532;2022-08-01T00:46:40;9.10;99.90
44037;DHT22;62488;-37.670;-63.532;2022-08-01T00:49:07;9.10;99.90
44037;DHT22;62488;-37.670;-63.532;2022-08-01T00:51:34;9.20;99.90
44037;DHT22;62488;-37.670;-63.532;2022-08-01T00:54:02;9.10;99.90
44037;DHT22;62488;-37.670;-63.532;2022-08-01T00:56:29;9.10;99.90
44037;DHT22;62488;-37.670;-63.532;2022-08-01T00:58:57;9.00;99.90
44037;DHT22;62488;-37.670;-63.532;2022-08-01T01:01:24;9.00;99.90
44037;DHT22;62488;-37.670;-63.532;2022-08-01T01:03:52;8.90;99.90
44037;DHT22;62488;-37.670;-63.532;2022-08-01T01:06:39;8.90;99.90
44037;DHT22;62488;-37.670;-63.532;2022-08-01T01:09:24;8.80;99.90
44037;DHT22;62488;-37.670;-63.532;2022-08-01T01:14:50;8.70;99.90
44037;DHT22;62488;-37.670;-63.532;2022-08-01T01:17:24;8.70;99.90
44037;DHT22;62488;-37.670;-63.532;2022-08-01T01:19:56;8.70;99.90
44037;DHT22;62488;-37.670;-63.532;2022-08-01T01:31:21;8.60;99.90
44037;DHT22;62488;-37.670;-63.532;2022-08-01T01:33:52;8.50;99.90
44037;DHT22;62488;-37.670;-63.532;2022-08-01T01:36:21;8.40;99.90
44037;DHT22;62488;-37.670;-63.532;2022-08-01T01:38:49;8.40;99.90
44037;DHT22;62488;-37.670;-63.532;2022-08-01T01:41:18;8.30;99.90
44037;DHT22;62488;-37.670;-63.532;2022-08-01T01:43:47;8.30;99.90
44037;DHT22;62488;-37.670;-63.532;2022-08-01T01:46:19;8.20;99.90
44037;DHT22;62488;-37.670;-63.532;2022-08-01T01:48:55;8.20;99.90
44037;DHT22;62488;-37.670;-63.532;2022-08-01T01:51:25;8.20;99.90
44037;DHT22;62488;-37.670;-63.532;2022-08-01T01:53:55;8.20;99.90
44037;DHT22;62488;-37.670;-63.532;2022-08-01T01:56:26;8.20;99.90
44037;DHT22;62488;-37.670;-63.532;2022-08-01T01:58:59;8.20;99.90
44037;DHT22;62488;-37.670;-63.532;2022-08-01T02:01:34;8.30;99.90
44037;DHT22;62488;-37.670;-63.532;2022-08-01T02:04:03;8.30;99.90
44037;DHT22;62488;-37.670;-63.532;2022-08-01T02:06:32;8.30;99.90
44037;DHT22;62488;-37.670;-63.532;2022-08-01T02:09:02;8.30;99.90
44037;DHT22;62488;-37.670;-63.532;2022-08-01T02:11:31;8.30;99.90
44037;DHT22;62488;-37.670;-63.532;2022-08-01T02:14:01;8.30;99.90
44037;DHT22;62488;-37.670;-63.532;2022-08-01T02:16:40;8.30;99.90
44037;DHT22;62488;-37.670;-63.532;2022-08-01T02:19:08;8.30;99.90
44037;DHT22;62488;-37.670;-63.532;2022-08-01T02:22:11;8.20;99.90
44037;DHT22;62488;-37.670;-63.532;2022-08-01T02:27:52;8.20;99.90
44037;DHT22;62488;-37.670;-63.532;2022-08-01T02:30:24;8.30;99.90
44037;DHT22;62488;-37.670;-63.532;2022-08-01T02:32:57;8.20;99.90
44037;DHT22;62488;-37.670;-63.532;2022-08-01T02:35:33;8.30;99.90
44037;DHT22;62488;-37.670;-63.532;2022-08-01T02:38:05;8.30;99.90
44037;DHT22;62488;-37.670;-63.532;2022-08-01T02:40:34;8.30;99.90
44037;DHT22;62488;-37.670;-63.532;2022-08-01T02:43:03;8.30;99.90
44037;DHT22;62488;-37.670;-63.532;2022-08-01T02:45:32;8.30;99.90
44037;DHT22;62488;-37.670;-63.532;2022-08-01T02:48:14;8.30;99.90
44037;DHT22;62488;-37.670;-63.532;2022-08-01T02:50:44;8.30;99.90
44037;DHT22;62488;-37.670;-63.532;2022-08-01T02:53:13;8.30;99.90
44037;DHT22;62488;-37.670;-63.532;2022-08-01T02:55:48;8.30;99.90
44037;DHT22;62488;-37.670;-63.532;2022-08-01T02:58:18;8.30;99.90
44037;DHT22;62488;-37.670;-63.532;2022-08-01T03:00:48;8.30;99.90
44037;DHT22;62488;-37.670;-63.532;2022-08-01T03:03:16;8.30;99.90
44037;DHT22;62488;-37.670;-63.532;2022-08-01T03:05:45;8.30;99.90
44037;DHT22;62488;-37.670;-63.532;2022-08-01T03:08:13;8.30;99.90
44037;DHT22;62488;-37.670;-63.532;2022-08-01T03:10:44;8.30;99.90
44037;DHT22;62488;-37.670;-63.532;2022-08-01T03:13:14;8.30;99.90
44037;DHT22;62488;-37.670;-63.532;2022-08-01T03:15:43;8.30;99.90
44037;DHT22;62488;-37.670;-63.532;2022-08-01T03:18:11;8.30;99.90
44037;DHT22;62488;-37.670;-63.532;2022-08-01T03:20:41;8.20;99.90
44037;DHT22;62488;-37.670;-63.532;2022-08-01T03:23:09;8.30;99.90
44037;DHT22;62488;-37.670;-63.532;2022-08-01T03:25:41;8.30;99.90
44037;DHT22;62488;-37.670;-63.532;2022-08-01T03:28:13;8.20;99.90
44037;DHT22;62488;-37.670;-63.532;2022-08-01T03:30:43;8.30;99.90
44037;DHT22;62488;-37.670;-63.532;2022-08-01T03:33:11;8.20;99.90
44037;DHT22;62488;-37.670;-63.532;2022-08-01T03:35:45;8.20;99.90
44037;DHT22;62488;-37.670;-63.532;2022-08-01T03:38:14;8.20;99.90
44037;DHT22;62488;-37.670;-63.532;2022-08-01T03:40:55;8.20;99.90
44037;DHT22;62488;-37.670;-63.532;2022-08-01T03:43:36;8.20;99.90
44037;DHT22;62488;-37.670;-63.532;2022-08-01T03:46:13;8.20;99.90
44037;DHT22;62488;-37.670;-63.532;2022-08-01T03:48:48;8.20;99.90
44037;DHT22;62488;-37.670;-63.532;2022-08-01T03:51:16;8.30;99.90
44037;DHT22;62488;-37.670;-63.532;2022-08-01T03:53:45;8.20;99.90
44037;DHT22;62488;-37.670;-63.532;2022-08-01T03:56:18;8.20;99.90
44037;DHT22;62488;-37.670;-63.532;2022-08-01T03:58:48;8.20;99.90
44037;DHT22;62488;-37.670;-63.532;2022-08-01T04:01:16;8.20;99.90
44037;DHT22;62488;-37.670;-63.532;2022-08-01T04:03:44;8.20;99.90
44037;DHT22;62488;-37.670;-63.532;2022-08-01T04:06:12;8.10;99.90
44037;DHT22;62488;-37.670;-63.532;2022-08-01T04:08:41;8.20;99.90
44037;DHT22;62488;-37.670;-63.532;2022-08-01T04:11:09;8.20;99.90
44037;DHT22;62488;-37.670;-63.532;2022-08-01T04:13:39;8.20;99.90
44037;DHT22;62488;-37.670;-63.532;2022-08-01T04:16:06;8.20;99.90
44037;DHT22;62488;-37.670;-63.532;2022-08-01T04:18:33;8.10;99.90
44037;DHT22;62488;-37.670;-63.532;2022-08-01T04:21:00;8.20;99.90
44037;DHT22;62488;-37.670;-63.532;2022-08-01T04:23:28;8.20;99.90
44037;DHT22;62488;-37.670;-63.532;2022-08-01T04:26:00;8.20;99.90
44037;DHT22;62488;-37.670;-63.532;2022-08-01T04:28:33;8.10;99.90
44037;DHT22;62488;-37.670;-63.532;2022-08-01T04:31:01;8.10;99.90
44037;DHT22;62488;-37.670;-63.532;2022-08-01T04:33:30;8.10;99.90
44037;DHT22;62488;-37.670;-63.532;2022-08-01T04:36:04;8.00;99.90
44037;DHT22;62488;-37.670;-63.532;2022-08-01T04:38:34;8.00;99.90
44037;DHT22;62488;-37.670;-63.532;2022-08-01T04:41:03;8.00;99.90
44037;DHT22;62488;-37.670;-63.532;2022-08-01T04:43:32;8.10;99.90
44037;DHT22;62488;-37.670;-63.532;2022-08-01T04:46:02;8.10;99.90
44037;DHT22;62488;-37.670;-63.532;2022-08-01T04:48:31;8.10;99.90
44037;DHT22;62488;-37.670;-63.532;2022-08-01T04:50:59;8.10;99.90
44037;DHT22;62488;-37.670;-63.532;2022-08-01T04:53:27;8.10;99.90
44037;DHT22;62488;-37.670;-63.532;2022-08-01T04:55:54;8.00;99.90
44037;DHT22;62488;-37.670;-63.532;2022-08-01T04:58:21;8.00;99.90
44037;DHT22;62488;-37.670;-63.532;2022-08-01T05:00:49;8.10;99.90
44037;DHT22;62488;-37.670;-63.532;2022-08-01T05:03:16;8.00;99.90
44037;DHT22;62488;-37.670;-63.532;2022-08-01T05:05:43;8.00;99.90
44037;DHT22;62488;-37.670;-63.532;2022-08-01T05:08:10;8.00;99.90
44037;DHT22;62488;-37.670;-63.532;2022-08-01T05:10:37;8.00;99.90
44037;DHT22;62488;-37.670;-63.532;2022-08-01T05:13:04;7.90;99.90
44037;DHT22;62488;-37.670;-63.532;2022-08-01T05:15:32;7.90;99.90
44037;DHT22;62488;-37.670;-63.532;2022-08-01T05:18:03;7.90;99.90
44037;DHT22;62488;-37.670;-63.532;2022-08-01T05:20:30;7.90;99.90
44037;DHT22;62488;-37.670;-63.532;2022-08-01T05:22:57;7.90;99.90
44037;DHT22;62488;-37.670;-63.532;2022-08-01T05:25:24;7.90;99.90
44037;DHT22;62488;-37.670;-63.532;2022-08-01T05:27:51;7.90;99.90
44037;DHT22;62488;-37.670;-63.532;2022-08-01T05:30:18;7.90;99.90
44037;DHT22;62488;-37.670;-63.532;2022-08-01T05:32:45;7.90;99.90
44037;DHT22;62488;-37.670;-63.532;2022-08-01T05:35:12;7.90;99.90
44037;DHT22;62488;-37.670;-63.532;2022-08-01T05:37:39;7.90;99.90
44037;DHT22;62488;-37.670;-63.532;2022-08-01T05:40:06;7.90;99.90
44037;DHT22;62488;-37.670;-63.532;2022-08-01T05:42:34;7.90;99.90
44037;DHT22;62488;-37.670;-63.532;2022-08-01T05:45:01;7.90;99.90
44037;DHT22;62488;-37.670;-63.532;2022-08-01T05:47:28;7.90;99.90
44037;DHT22;62488;-37.670;-63.532;2022-08-01T05:49:54;7.80;99.90
44037;DHT22;62488;-37.670;-63.532;2022-08-01T05:52:22;7.70;99.90
44037;DHT22;62488;-37.670;-63.532;2022-08-01T05:54:49;7.80;99.90
44037;DHT22;62488;-37.670;-63.532;2022-08-01T05:57:16;7.80;99.90
44037;DHT22;62488;-37.670;-63.532;2022-08-01T05:59:43;7.80;99.90
44037;DHT22;62488;-37.670;-63.532;2022-08-01T06:02:10;7.80;99.90
44037;DHT22;62488;-37.670;-63.532;2022-08-01T06:04:37;7.70;99.90
44037;DHT22;62488;-37.670;-63.532;2022-08-01T06:07:04;7.70;99.90
44037;DHT22;62488;-37.670;-63.532;2022-08-01T06:09:31;7.70;99.90
44037;DHT22;62488;-37.670;-63.532;2022-08-01T06:11:58;7.60;99.90
44037;DHT22;62488;-37.670;-63.532;2022-08-01T06:14:25;7.60;99.90
44037;DHT22;62488;-37.670;-63.532;2022-08-01T06:16:52;7.60;99.90
44037;DHT22;62488;-37.670;-63.532;2022-08-01T06:19:19;7.60;99.90
44037;DHT22;62488;-37.670;-63.532;2022-08-01T06:21:47;7.50;99.90
44037;DHT22;62488;-37.670;-63.532;2022-08-01T06:24:14;7.50;99.90
44037;DHT22;62488;-37.670;-63.532;2022-08-01T06:26:40;7.50;99.90
44037;DHT22;62488;-37.670;-63.532;2022-08-01T06:29:08;7.50;99.90
44037;DHT22;62488;-37.670;-63.532;2022-08-01T06:31:35;7.50;99.90
44037;DHT22;62488;-37.670;-63.532;2022-08-01T06:34:02;7.40;99.90
44037;DHT22;62488;-37.670;-63.532;2022-08-01T06:36:30;7.40;99.90
44037;DHT22;62488;-37.670;-63.532;2022-08-01T06:38:58;7.30;99.90
44037;DHT22;62488;-37.670;-63.532;2022-08-01T06:41:26;7.40;99.90
44037;DHT22;62488;-37.670;-63.532;2022-08-01T06:43:53;7.40;99.90
44037;DHT22;62488;-37.670;-63.532;2022-08-01T06:46:20;7.40;99.90
44037;DHT22;62488;-37.670;-63.532;2022-08-01T06:48:47;7.30;99.90
44037;DHT22;62488;-37.670;-63.532;2022-08-01T06:51:14;7.30;99.90
44037;DHT22;62488;-37.670;-63.532;2022-08-01T06:53:43;7.40;99.90
44037;DHT22;62488;-37.670;-63.532;2022-08-01T06:56:10;7.30;99.90
44037;DHT22;62488;-37.670;-63.532;2022-08-01T06:58:37;7.20;99.90
44037;DHT22;62488;-37.670;-63.532;2022-08-01T07:01:05;7.30;99.90
44037;DHT22;62488;-37.670;-63.532;2022-08-01T07:03:34;7.30;99.90
44037;DHT22;62488;-37.670;-63.532;2022-08-01T07:06:01;7.40;99.90
44037;DHT22;62488;-37.670;-63.532;2022-08-01T07:08:28;7.30;99.90
44037;DHT22;62488;-37.670;-63.532;2022-08-01T07:10:56;7.40;99.90
44037;DHT22;62488;-37.670;-63.532;2022-08-01T07:13:28;7.30;99.90
44037;DHT22;62488;-37.670;-63.532;2022-08-01T07:15:57;7.40;99.90
44037;DHT22;62488;-37.670;-63.532;2022-08-01T07:18:24;7.40;99.90
44037;DHT22;62488;-37.670;-63.532;2022-08-01T07:20:51;7.30;99.90
44037;DHT22;62488;-37.670;-63.532;2022-08-01T07:23:18;7.30;99.90
44037;DHT22;62488;-37.670;-63.532;2022-08-01T07:25:45;7.20;99.90
44037;DHT22;62488;-37.670;-63.532;2022-08-01T07:28:14;7.30;99.90
44037;DHT22;62488;-37.670;-63.532;2022-08-01T07:30:41;7.30;99.90
44037;DHT22;62488;-37.670;-63.532;2022-08-01T07:33:10;7.20;99.90
44037;DHT22;62488;-37.670;-63.532;2022-08-01T07:35:38;7.30;99.90
44037;DHT22;62488;-37.670;-63.532;2022-08-01T07:38:06;7.20;99.90
44037;DHT22;62488;-37.670;-63.532;2022-08-01T07:40:34;7.20;99.90
44037;DHT22;62488;-37.670;-63.532;2022-08-01T07:43:01;7.10;99.90
44037;DHT22;62488;-37.670;-63.532;2022-08-01T07:45:29;7.20;99.90
44037;DHT22;62488;-37.670;-63.532;2022-08-01T07:47:56;7.20;99.90
44037;DHT22;62488;-37.670;-63.532;2022-08-01T07:50:23;7.20;99.90
44037;DHT22;62488;-37.670;-63.532;2022-08-01T07:52:50;7.20;99.90
44037;DHT22;62488;-37.670;-63.532;2022-08-01T07:55:17;7.10;99.90
44037;DHT22;62488;-37.670;-63.532;2022-08-01T07:57:44;7.10;99.90
44037;DHT22;62488;-37.670;-63.532;2022-08-01T08:00:12;7.00;99.90
44037;DHT22;62488;-37.670;-63.532;2022-08-01T08:02:39;7.10;99.90
44037;DHT22;62488;-37.670;-63.532;2022-08-01T08:05:07;7.00;99.90
44037;DHT22;62488;-37.670;-63.532;2022-08-01T08:07:34;6.90;99.90
44037;DHT22;62488;-37.670;-63.532;2022-08-01T08:10:01;6.90;99.90
44037;DHT22;62488;-37.670;-63.532;2022-08-01T08:12:28;7.00;99.90
44037;DHT22;62488;-37.670;-63.532;2022-08-01T08:14:56;6.90;99.90
44037;DHT22;62488;-37.670;-63.532;2022-08-01T08:17:25;6.90;99.90
44037;DHT22;62488;-37.670;-63.532;2022-08-01T08:19:53;6.90;99.90
44037;DHT22;62488;-37.670;-63.532;2022-08-01T08:22:20;6.90;99.90
44037;DHT22;62488;-37.670;-63.532;2022-08-01T08:24:47;6.90;99.90
44037;DHT22;62488;-37.670;-63.532;2022-08-01T08:27:14;6.90;99.90
44037;DHT22;62488;-37.670;-63.532;2022-08-01T08:29:41;6.90;99.90
44037;DHT22;62488;-37.670;-63.532;2022-08-01T08:32:08;6.90;99.90
44037;DHT22;62488;-37.670;-63.532;2022-08-01T08:34:35;6.80;99.90
44037;DHT22;62488;-37.670;-63.532;2022-08-01T08:37:03;6.80;99.90
44037;DHT22;62488;-37.670;-63.532;2022-08-01T08:39:30;6.90;99.90
44037;DHT22;62488;-37.670;-63.532;2022-08-01T08:42:00;6.80;99.90
44037;DHT22;62488;-37.670;-63.532;2022-08-01T08:44:28;6.80;99.90
44037;DHT22;62488;-37.670;-63.532;2022-08-01T08:46:55;6.80;99.90
44037;DHT22;62488;-37.670;-63.532;2022-08-01T08:49:27;6.70;99.90
44037;DHT22;62488;-37.670;-63.532;2022-08-01T08:51:59;6.70;99.90
44037;DHT22;62488;-37.670;-63.532;2022-08-01T08:54:27;6.70;99.90
44037;DHT22;62488;-37.670;-63.532;2022-08-01T08:56:59;6.70;99.90
44037;DHT22;62488;-37.670;-63.532;2022-08-01T08:59:27;6.60;99.90
44037;DHT22;62488;-37.670;-63.532;2022-08-01T09:01:55;6.50;99.90
44037;DHT22;62488;-37.670;-63.532;2022-08-01T09:04:22;6.60;99.90
44037;DHT22;62488;-37.670;-63.532;2022-08-01T09:06:50;6.60;99.90
44037;DHT22;62488;-37.670;-63.532;2022-08-01T09:09:17;6.60;99.90
44037;DHT22;62488;-37.670;-63.532;2022-08-01T09:11:45;6.70;99.90
44037;DHT22;62488;-37.670;-63.532;2022-08-01T09:14:17;6.60;99.90
44037;DHT22;62488;-37.670;-63.532;2022-08-01T09:17:09;6.70;99.90
44037;DHT22;62488;-37.670;-63.532;2022-08-01T09:19:41;6.80;99.90
44037;DHT22;62488;-37.670;-63.532;2022-08-01T09:22:11;6.80;99.90
44037;DHT22;62488;-37.670;-63.532;2022-08-01T09:24:40;6.80;99.90
44037;DHT22;62488;-37.670;-63.532;2022-08-01T09:27:21;6.80;99.90
44037;DHT22;62488;-37.670;-63.532;2022-08-01T09:29:52;6.70;99.90
44037;DHT22;62488;-37.670;-63.532;2022-08-01T09:32:20;6.70;99.90
44037;DHT22;62488;-37.670;-63.532;2022-08-01T09:34:47;6.70;99.90
44037;DHT22;62488;-37.670;-63.532;2022-08-01T09:37:14;6.80;99.90
44037;DHT22;62488;-37.670;-63.532;2022-08-01T09:39:44;6.70;99.90
44037;DHT22;62488;-37.670;-63.532;2022-08-01T09:42:26;6.70;99.90
44037;DHT22;62488;-37.670;-63.532;2022-08-01T09:44:53;6.70;99.90
44037;DHT22;62488;-37.670;-63.532;2022-08-01T09:47:21;6.70;99.90
44037;DHT22;62488;-37.670;-63.532;2022-08-01T09:49:55;6.70;99.90
44037;DHT22;62488;-37.670;-63.532;2022-08-01T09:52:25;6.60;99.90
44037;DHT22;62488;-37.670;-63.532;2022-08-01T09:54:58;6.60;99.90
44037;DHT22;62488;-37.670;-63.532;2022-08-01T09:57:26;6.50;99.90
44037;DHT22;62488;-37.670;-63.532;2022-08-01T09:59:56;6.50;99.90
44037;DHT22;62488;-37.670;-63.532;2022-08-01T10:04:58;6.40;99.90
44037;DHT22;62488;-37.670;-63.532;2022-08-01T10:07:26;6.50;99.90
44037;DHT22;62488;-37.670;-63.532;2022-08-01T10:09:53;6.60;99.90
44037;DHT22;62488;-37.670;-63.532;2022-08-01T10:12:22;6.60;99.90
44037;DHT22;62488;-37.670;-63.532;2022-08-01T10:14:52;6.50;99.90
44037;DHT22;62488;-37.670;-63.532;2022-08-01T10:17:24;6.70;99.90
44037;DHT22;62488;-37.670;-63.532;2022-08-01T10:19:53;6.50;99.90
44037;DHT22;62488;-37.670;-63.532;2022-08-01T10:22:23;6.50;99.90
44037;DHT22;62488;-37.670;-63.532;2022-08-01T10:24:55;6.40;99.90
44037;DHT22;62488;-37.670;-63.532;2022-08-01T10:27:24;6.40;99.90
44037;DHT22;62488;-37.670;-63.532;2022-08-01T10:30:03;6.50;99.90
44037;DHT22;62488;-37.670;-63.532;2022-08-01T10:32:32;6.40;99.90
44037;DHT22;62488;-37.670;-63.532;2022-08-01T10:35:00;6.30;99.90
44037;DHT22;62488;-37.670;-63.532;2022-08-01T10:37:29;6.30;99.90
44037;DHT22;62488;-37.670;-63.532;2022-08-01T10:39:57;6.20;99.90
44037;DHT22;62488;-37.670;-63.532;2022-08-01T10:42:24;6.20;99.90
44037;DHT22;62488;-37.670;-63.532;2022-08-01T10:44:51;6.20;99.90
44037;DHT22;62488;-37.670;-63.532;2022-08-01T10:47:23;6.30;99.90
44037;DHT22;62488;-37.670;-63.532;2022-08-01T10:52:27;6.20;99.90
44037;DHT22;62488;-37.670;-63.532;2022-08-01T10:55:14;6.30;99.90
44037;DHT22;62488;-37.670;-63.532;2022-08-01T10:57:45;6.30;99.90
44037;DHT22;62488;-37.670;-63.532;2022-08-01T11:00:20;6.20;99.90
44037;DHT22;62488;-37.670;-63.532;2022-08-01T11:03:02;6.20;99.90
44037;DHT22;62488;-37.670;-63.532;2022-08-01T11:05:34;6.10;99.90
44037;DHT22;62488;-37.670;-63.532;2022-08-01T11:08:06;6.10;99.90
44037;DHT22;62488;-37.670;-63.532;2022-08-01T11:10:40;6.10;99.90
44037;DHT22;62488;-37.670;-63.532;2022-08-01T11:13:09;6.10;99.90
44037;DHT22;62488;-37.670;-63.532;2022-08-01T11:15:38;6.10;99.90
44037;DHT22;62488;-37.670;-63.532;2022-08-01T11:20:59;6.20;99.90
44037;DHT22;62488;-37.670;-63.532;2022-08-01T11:23:28;6.10;99.90
44037;DHT22;62488;-37.670;-63.532;2022-08-01T11:28:25;6.10;99.90
44037;DHT22;62488;-37.670;-63.532;2022-08-01T11:39:11;5.90;99.90
44037;DHT22;62488;-37.670;-63.532;2022-08-01T11:41:38;5.90;99.90
44037;DHT22;62488;-37.670;-63.532;2022-08-01T11:44:14;6.00;99.90
44037;DHT22;62488;-37.670;-63.532;2022-08-01T11:52:11;6.00;99.90
44037;DHT22;62488;-37.670;-63.532;2022-08-01T11:54:54;6.00;99.90
44037;DHT22;62488;-37.670;-63.532;2022-08-01T11:57:28;6.00;99.90
44037;DHT22;62488;-37.670;-63.532;2022-08-01T12:00:09;6.00;99.90
44037;DHT22;62488;-37.670;-63.532;2022-08-01T12:02:37;6.10;99.90
44037;DHT22;62488;-37.670;-63.532;2022-08-01T12:05:09;6.10;99.90
44037;DHT22;62488;-37.670;-63.532;2022-08-01T12:07:39;6.10;99.90
44037;DHT22;62488;-37.670;-63.532;2022-08-01T12:10:12;6.10;99.90
44037;DHT22;62488;-37.670;-63.532;2022-08-01T12:12:47;6.00;99.90
44037;DHT22;62488;-37.670;-63.532;2022-08-01T12:15:16;5.90;99.90
44037;DHT22;62488;-37.670;-63.532;2022-08-01T12:17:46;5.90;99.90
44037;DHT22;62488;-37.670;-63.532;2022-08-01T12:20:15;6.00;99.90
44037;DHT22;62488;-37.670;-63.532;2022-08-01T12:22:43;5.90;99.90
44037;DHT22;62488;-37.670;-63.532;2022-08-01T12:25:11;5.80;99.90
44037;DHT22;62488;-37.670;-63.532;2022-08-01T12:27:40;5.90;99.90
44037;DHT22;62488;-37.670;-63.532;2022-08-01T12:30:11;6.10;99.90
44037;DHT22;62488;-37.670;-63.532;2022-08-01T12:32:40;6.00;99.90
44037;DHT22;62488;-37.670;-63.532;2022-08-01T12:35:13;6.10;99.90
44037;DHT22;62488;-37.670;-63.532;2022-08-01T12:37:47;6.10;99.90
44037;DHT22;62488;-37.670;-63.532;2022-08-01T12:40:21;6.00;99.90
44037;DHT22;62488;-37.670;-63.532;2022-08-01T12:42:53;6.10;99.90
44037;DHT22;62488;-37.670;-63.532;2022-08-01T12:45:28;6.10;99.90
44037;DHT22;62488;-37.670;-63.532;2022-08-01T12:47:56;6.20;99.90
44037;DHT22;62488;-37.670;-63.532;2022-08-01T12:50:29;6.00;99.90
44037;DHT22;62488;-37.670;-63.532;2022-08-01T12:52:57;6.00;99.90
44037;DHT22;62488;-37.670;-63.532;2022-08-01T12:55:26;5.90;99.90
44037;DHT22;62488;-37.670;-63.532;2022-08-01T12:58:11;5.90;99.90
44037;DHT22;62488;-37.670;-63.532;2022-08-01T13:00:40;5.80;99.90
44037;DHT22;62488;-37.670;-63.532;2022-08-01T13:03:19;5.90;99.90
44037;DHT22;62488;-37.670;-63.532;2022-08-01T13:05:50;5.90;99.90
44037;DHT22;62488;-37.670;-63.532;2022-08-01T13:08:22;6.00;99.90
44037;DHT22;62488;-37.670;-63.532;2022-08-01T13:10:55;6.20;99.90
44037;DHT22;62488;-37.670;-63.532;2022-08-01T13:13:41;6.50;99.90
44037;DHT22;62488;-37.670;-63.532;2022-08-01T13:16:09;6.40;99.90
44037;DHT22;62488;-37.670;-63.532;2022-08-01T13:18:37;6.50;99.90
44037;DHT22;62488;-37.670;-63.532;2022-08-01T13:23:36;6.50;99.90
44037;DHT22;62488;-37.670;-63.532;2022-08-01T13:26:04;6.30;99.90
44037;DHT22;62488;-37.670;-63.532;2022-08-01T13:28:31;6.30;99.90
44037;DHT22;62488;-37.670;-63.532;2022-08-01T13:31:05;6.40;99.90
44037;DHT22;62488;-37.670;-63.532;2022-08-01T13:33:44;6.40;99.90
44037;DHT22;62488;-37.670;-63.532;2022-08-01T13:36:12;6.40;99.90
44037;DHT22;62488;-37.670;-63.532;2022-08-01T13:38:41;6.60;99.90
44037;DHT22;62488;-37.670;-63.532;2022-08-01T13:41:26;6.60;99.90
44037;DHT22;62488;-37.670;-63.532;2022-08-01T13:43:53;6.80;99.90
44037;DHT22;62488;-37.670;-63.532;2022-08-01T13:46:21;6.70;99.90
44037;DHT22;62488;-37.670;-63.532;2022-08-01T13:48:48;6.80;99.90
44037;DHT22;62488;-37.670;-63.532;2022-08-01T13:51:15;6.80;99.90
44037;DHT22;62488;-37.670;-63.532;2022-08-01T13:53:42;7.00;99.90
44037;DHT22;62488;-37.670;-63.532;2022-08-01T13:56:09;7.20;99.90
44037;DHT22;62488;-37.670;-63.532;2022-08-01T13:58:37;7.40;99.90
44037;DHT22;62488;-37.670;-63.532;2022-08-01T14:01:04;7.30;99.90
44037;DHT22;62488;-37.670;-63.532;2022-08-01T14:03:31;7.40;99.90
44037;DHT22;62488;-37.670;-63.532;2022-08-01T14:05:58;7.70;99.90
44037;DHT22;62488;-37.670;-63.532;2022-08-01T14:08:25;8.20;99.90
44037;DHT22;62488;-37.670;-63.532;2022-08-01T14:10:55;8.10;99.90
44037;DHT22;62488;-37.670;-63.532;2022-08-01T14:13:28;7.90;99.90
44037;DHT22;62488;-37.670;-63.532;2022-08-01T14:15:55;7.50;99.90
44037;DHT22;62488;-37.670;-63.532;2022-08-01T14:18:22;7.70;99.90
44037;DHT22;62488;-37.670;-63.532;2022-08-01T14:20:49;8.00;99.90
44037;DHT22;62488;-37.670;-63.532;2022-08-01T14:23:17;8.30;99.90
44037;DHT22;62488;-37.670;-63.532;2022-08-01T14:25:44;8.30;99.90
44037;DHT22;62488;-37.670;-63.532;2022-08-01T14:28:11;8.30;99.90
44037;DHT22;62488;-37.670;-63.532;2022-08-01T14:30:38;8.40;99.90
44037;DHT22;62488;-37.670;-63.532;2022-08-01T14:33:07;8.60;99.90
44037;DHT22;62488;-37.670;-63.532;2022-08-01T14:35:37;8.70;99.90
44037;DHT22;62488;-37.670;-63.532;2022-08-01T14:38:04;8.90;99.90
44037;DHT22;62488;-37.670;-63.532;2022-08-01T14:40:31;8.90;99.90
44037;DHT22;62488;-37.670;-63.532;2022-08-01T14:42:58;9.10;99.90
44037;DHT22;62488;-37.670;-63.532;2022-08-01T14:45:27;8.90;99.90
44037;DHT22;62488;-37.670;-63.532;2022-08-01T14:47:54;8.50;99.90
44037;DHT22;62488;-37.670;-63.532;2022-08-01T14:50:22;8.20;99.90
44037;DHT22;62488;-37.670;-63.532;2022-08-01T14:52:50;8.10;99.90
44037;DHT22;62488;-37.670;-63.532;2022-08-01T14:55:19;8.40;99.90
44037;DHT22;62488;-37.670;-63.532;2022-08-01T14:57:49;8.30;99.90
44037;DHT22;62488;-37.670;-63.532;2022-08-01T15:00:16;8.40;99.90
44037;DHT22;62488;-37.670;-63.532;2022-08-01T15:02:44;8.60;99.90
44037;DHT22;62488;-37.670;-63.532;2022-08-01T15:05:11;8.70;99.90
44037;DHT22;62488;-37.670;-63.532;2022-08-01T15:07:41;8.70;99.90
44037;DHT22;62488;-37.670;-63.532;2022-08-01T15:10:10;8.90;99.90
44037;DHT22;62488;-37.670;-63.532;2022-08-01T15:12:39;8.90;99.90
44037;DHT22;62488;-37.670;-63.532;2022-08-01T15:15:07;9.20;99.90
44037;DHT22;62488;-37.670;-63.532;2022-08-01T15:17:34;9.40;99.90
44037;DHT22;62488;-37.670;-63.532;2022-08-01T15:20:06;9.40;99.90
44037;DHT22;62488;-37.670;-63.532;2022-08-01T15:22:34;9.70;99.90
44037;DHT22;62488;-37.670;-63.532;2022-08-01T15:25:01;9.90;99.90
44037;DHT22;62488;-37.670;-63.532;2022-08-01T15:27:29;9.70;99.90
44037;DHT22;62488;-37.670;-63.532;2022-08-01T15:29:56;9.50;99.90
44037;DHT22;62488;-37.670;-63.532;2022-08-01T15:32:23;9.60;99.90
44037;DHT22;62488;-37.670;-63.532;2022-08-01T15:34:51;9.40;99.90
44037;DHT22;62488;-37.670;-63.532;2022-08-01T15:37:19;9.50;99.90
44037;DHT22;62488;-37.670;-63.532;2022-08-01T15:39:47;9.50;99.90
44037;DHT22;62488;-37.670;-63.532;2022-08-01T15:42:16;9.40;99.90
44037;DHT22;62488;-37.670;-63.532;2022-08-01T15:44:43;9.50;99.90
44037;DHT22;62488;-37.670;-63.532;2022-08-01T15:47:10;9.60;99.90
44037;DHT22;62488;-37.670;-63.532;2022-08-01T15:49:38;9.60;99.90
44037;DHT22;62488;-37.670;-63.532;2022-08-01T15:52:09;9.60;99.90
44037;DHT22;62488;-37.670;-63.532;2022-08-01T15:54:36;9.60;99.90
44037;DHT22;62488;-37.670;-63.532;2022-08-01T15:57:06;9.70;99.90
44037;DHT22;62488;-37.670;-63.532;2022-08-01T15:59:34;9.80;99.90